PAHN

Details ICAO PAHN (HNS)
Name HAINES
Region USA (Alaska)
Timezone Unknown (UTC+0.0)
Plans Departing 11
Arriving 13
Stats Elevation 15 ft / 5 m (AMSL)
Location 59.243829° -135.523538°
Runways 1
Magnetic Variation 19.269° E
Sunrise 2017-12-18 17:56:45 UTC / 2017-12-18 17:56:45 Local
Sunset 2017-12-19 00:03:43 UTC / 2017-12-19 00:03:43 Local
Advertisement - Login to hide

Runways

ID Width Length Bearing (true) Bearing (mag) Surface Threshold Offset Overrun Length
08 100 ft / 30 m 3,988 ft / 1,216 m 110.17° 90.90° Asphalt 0 ft / 0 m 300 ft / 91 m
26 100 ft / 30 m 3,988 ft / 1,216 m 290.19° 270.92° Asphalt 1,000 ft / 305 m 300 ft / 91 m

Map

Weather


0- 5 10 15 20 25 30 35+ Temperature / ° C

Clouds and Precipitation
Forecast for 2017-12-19 00:00 UTC. Updated an hour ago

Ground ~20,000 ft ~40,000 ft Winds

METAR

PAHN 182154Z AUTO 30012KT 10SM CLR 00/M03 A3006 RMK AO2 SLP183 T00001028 TSNO

TAF

TAF PAHN 181728Z 1818/1918 30010KT P6SM FEW025 OVC060 FM182000 30014KT P6SM BKN070 FM182300 30011KT P6SM FEW080 AMD LTD TO CLD VIS AND WIND

Frequencies

Recorded 135.75 MHz ASOS
Unicom 122.90 MHz CTAF
Warning: Do not use this data for real-world aviation or navigation. No guarantee of current accuracy is given.